PILOTS ONLINE: 195    ATC ONLINE: 20

Location

IATA ANN
City Annette
Country  United States
Latitude 55° 2' 32" N
Longitude 131° 34' 19" W
Elevation 119 ft
Type Medium Airport

Weather

METAR
2014/07/10 05:53
PANT 100553Z AUTO 32004KT 10SM CLR 13/12 A3019 RMK AO2 SLP223 T01280117 10189 20122 53001 TSNO
TAF
No TAF available

Runways

02/20 5709 ft / 150 ft
12/30 7493 ft / 150 ft

Outbound flights

Inbound flights


Spotted incorrect airport information? Please login with your VATSIM ID.